sensor_id;sensor_type;location;lat;lon;timestamp;temperature;humidity
19586;DHT22;9939;49.246;9.106;2022-10-24T00:01:07;14.20;99.90
19586;DHT22;9939;49.246;9.106;2022-10-24T00:03:34;14.30;99.90
19586;DHT22;9939;49.246;9.106;2022-10-24T00:06:01;14.40;99.90
19586;DHT22;9939;49.246;9.106;2022-10-24T00:08:30;14.30;99.90
19586;DHT22;9939;49.246;9.106;2022-10-24T00:10:57;14.30;99.90
19586;DHT22;9939;49.246;9.106;2022-10-24T00:13:24;14.30;99.90
19586;DHT22;9939;49.246;9.106;2022-10-24T00:15:51;14.20;99.90
19586;DHT22;9939;49.246;9.106;2022-10-24T00:18:18;14.30;99.90
19586;DHT22;9939;49.246;9.106;2022-10-24T00:20:45;14.10;99.90
19586;DHT22;9939;49.246;9.106;2022-10-24T00:23:11;14.20;99.90
19586;DHT22;9939;49.246;9.106;2022-10-24T00:25:39;14.00;99.90
19586;DHT22;9939;49.246;9.106;2022-10-24T00:28:06;14.20;99.90
19586;DHT22;9939;49.246;9.106;2022-10-24T00:30:33;14.20;99.90
19586;DHT22;9939;49.246;9.106;2022-10-24T00:32:59;14.10;99.90
19586;DHT22;9939;49.246;9.106;2022-10-24T00:35:26;14.20;99.90
19586;DHT22;9939;49.246;9.106;2022-10-24T00:37:53;14.00;99.90
19586;DHT22;9939;49.246;9.106;2022-10-24T00:40:20;13.90;99.90
19586;DHT22;9939;49.246;9.106;2022-10-24T00:42:47;13.80;99.90
19586;DHT22;9939;49.246;9.106;2022-10-24T00:47:57;13.80;99.90
19586;DHT22;9939;49.246;9.106;2022-10-24T00:50:24;13.70;99.90
19586;DHT22;9939;49.246;9.106;2022-10-24T00:52:50;13.60;99.90
19586;DHT22;9939;49.246;9.106;2022-10-24T00:55:17;13.60;99.90
19586;DHT22;9939;49.246;9.106;2022-10-24T00:57:45;13.40;99.90
19586;DHT22;9939;49.246;9.106;2022-10-24T01:00:14;13.40;99.90
19586;DHT22;9939;49.246;9.106;2022-10-24T01:02:42;13.30;99.90
19586;DHT22;9939;49.246;9.106;2022-10-24T01:05:09;13.20;99.90
19586;DHT22;9939;49.246;9.106;2022-10-24T01:07:49;13.20;99.90
19586;DHT22;9939;49.246;9.106;2022-10-24T01:18:48;13.20;99.90
19586;DHT22;9939;49.246;9.106;2022-10-24T01:32:00;13.00;99.90
19586;DHT22;9939;49.246;9.106;2022-10-24T01:37:09;12.80;99.90
19586;DHT22;9939;49.246;9.106;2022-10-24T01:39:46;12.90;99.90
19586;DHT22;9939;49.246;9.106;2022-10-24T01:42:14;12.80;99.90
19586;DHT22;9939;49.246;9.106;2022-10-24T01:44:43;12.70;99.90
19586;DHT22;9939;49.246;9.106;2022-10-24T01:47:14;12.70;99.90
19586;DHT22;9939;49.246;9.106;2022-10-24T01:49:43;12.90;99.90
19586;DHT22;9939;49.246;9.106;2022-10-24T01:52:12;12.80;99.90
19586;DHT22;9939;49.246;9.106;2022-10-24T01:54:44;12.80;99.90
19586;DHT22;9939;49.246;9.106;2022-10-24T01:57:13;12.80;99.90
19586;DHT22;9939;49.246;9.106;2022-10-24T01:59:44;13.00;99.90
19586;DHT22;9939;49.246;9.106;2022-10-24T02:02:16;12.90;99.90
19586;DHT22;9939;49.246;9.106;2022-10-24T02:04:47;12.80;99.90
19586;DHT22;9939;49.246;9.106;2022-10-24T02:07:16;12.70;99.90
19586;DHT22;9939;49.246;9.106;2022-10-24T02:09:43;12.60;99.90
19586;DHT22;9939;49.246;9.106;2022-10-24T02:12:11;12.60;99.90
19586;DHT22;9939;49.246;9.106;2022-10-24T02:14:42;12.70;99.90
19586;DHT22;9939;49.246;9.106;2022-10-24T02:17:11;12.60;99.90
19586;DHT22;9939;49.246;9.106;2022-10-24T02:19:38;12.60;99.90
19586;DHT22;9939;49.246;9.106;2022-10-24T02:29:39;12.90;99.90
19586;DHT22;9939;49.246;9.106;2022-10-24T02:32:08;12.90;99.90
19586;DHT22;9939;49.246;9.106;2022-10-24T02:34:36;12.80;99.90
19586;DHT22;9939;49.246;9.106;2022-10-24T02:37:04;12.80;99.90
19586;DHT22;9939;49.246;9.106;2022-10-24T02:39:32;12.90;99.90
19586;DHT22;9939;49.246;9.106;2022-10-24T02:42:00;12.80;99.90
19586;DHT22;9939;49.246;9.106;2022-10-24T02:44:28;12.70;99.90
19586;DHT22;9939;49.246;9.106;2022-10-24T02:46:56;12.80;99.90
19586;DHT22;9939;49.246;9.106;2022-10-24T02:49:25;12.80;99.90
19586;DHT22;9939;49.246;9.106;2022-10-24T02:51:52;12.70;99.90
19586;DHT22;9939;49.246;9.106;2022-10-24T02:54:19;12.60;99.90
19586;DHT22;9939;49.246;9.106;2022-10-24T02:56:47;12.80;99.90
19586;DHT22;9939;49.246;9.106;2022-10-24T02:59:15;12.80;99.90
19586;DHT22;9939;49.246;9.106;2022-10-24T03:01:42;12.70;99.90
19586;DHT22;9939;49.246;9.106;2022-10-24T03:04:09;12.60;99.90
19586;DHT22;9939;49.246;9.106;2022-10-24T03:06:36;12.70;99.90
19586;DHT22;9939;49.246;9.106;2022-10-24T03:09:03;12.60;99.90
19586;DHT22;9939;49.246;9.106;2022-10-24T03:11:30;12.50;99.90
19586;DHT22;9939;49.246;9.106;2022-10-24T03:13:57;12.70;99.90
19586;DHT22;9939;49.246;9.106;2022-10-24T03:16:24;12.80;99.90
19586;DHT22;9939;49.246;9.106;2022-10-24T03:18:51;12.70;99.90
19586;DHT22;9939;49.246;9.106;2022-10-24T03:21:18;12.60;99.90
19586;DHT22;9939;49.246;9.106;2022-10-24T03:23:45;12.60;99.90
19586;DHT22;9939;49.246;9.106;2022-10-24T03:26:12;12.70;99.90
19586;DHT22;9939;49.246;9.106;2022-10-24T03:28:39;12.70;99.90
19586;DHT22;9939;49.246;9.106;2022-10-24T03:31:06;13.00;99.90
19586;DHT22;9939;49.246;9.106;2022-10-24T03:33:33;13.10;99.90
19586;DHT22;9939;49.246;9.106;2022-10-24T03:36:00;13.10;99.90
19586;DHT22;9939;49.246;9.106;2022-10-24T03:38:27;13.50;99.90
19586;DHT22;9939;49.246;9.106;2022-10-24T03:40:54;14.10;99.90
19586;DHT22;9939;49.246;9.106;2022-10-24T03:43:21;14.40;99.90
19586;DHT22;9939;49.246;9.106;2022-10-24T03:45:48;14.50;99.90
19586;DHT22;9939;49.246;9.106;2022-10-24T03:48:15;14.70;99.90
19586;DHT22;9939;49.246;9.106;2022-10-24T03:50:42;14.90;99.90
19586;DHT22;9939;49.246;9.106;2022-10-24T03:53:09;14.90;99.90
19586;DHT22;9939;49.246;9.106;2022-10-24T03:55:36;15.00;99.90
19586;DHT22;9939;49.246;9.106;2022-10-24T03:58:03;15.10;99.90
19586;DHT22;9939;49.246;9.106;2022-10-24T04:00:30;15.10;99.90
19586;DHT22;9939;49.246;9.106;2022-10-24T04:03:00;15.00;99.90
19586;DHT22;9939;49.246;9.106;2022-10-24T04:05:27;15.00;99.90
19586;DHT22;9939;49.246;9.106;2022-10-24T04:07:54;15.00;99.90
19586;DHT22;9939;49.246;9.106;2022-10-24T04:10:21;15.20;99.90
19586;DHT22;9939;49.246;9.106;2022-10-24T04:12:48;15.20;99.90
19586;DHT22;9939;49.246;9.106;2022-10-24T04:15:14;15.30;99.90
19586;DHT22;9939;49.246;9.106;2022-10-24T04:17:41;15.50;99.90
19586;DHT22;9939;49.246;9.106;2022-10-24T04:20:09;15.60;99.90
19586;DHT22;9939;49.246;9.106;2022-10-24T04:22:36;15.70;99.90
19586;DHT22;9939;49.246;9.106;2022-10-24T04:25:03;15.80;99.90
19586;DHT22;9939;49.246;9.106;2022-10-24T04:27:30;15.70;99.90
19586;DHT22;9939;49.246;9.106;2022-10-24T04:29:57;15.70;99.90
19586;DHT22;9939;49.246;9.106;2022-10-24T04:32:23;15.60;99.90
19586;DHT22;9939;49.246;9.106;2022-10-24T04:34:50;15.60;99.90
19586;DHT22;9939;49.246;9.106;2022-10-24T04:37:17;15.50;99.90
19586;DHT22;9939;49.246;9.106;2022-10-24T04:39:44;15.40;99.90
19586;DHT22;9939;49.246;9.106;2022-10-24T04:42:11;15.30;99.90
19586;DHT22;9939;49.246;9.106;2022-10-24T04:44:38;15.40;99.90
19586;DHT22;9939;49.246;9.106;2022-10-24T04:47:05;15.30;99.90
19586;DHT22;9939;49.246;9.106;2022-10-24T04:49:32;15.20;99.90
19586;DHT22;9939;49.246;9.106;2022-10-24T04:51:58;15.10;99.90
19586;DHT22;9939;49.246;9.106;2022-10-24T04:54:25;15.20;99.90
19586;DHT22;9939;49.246;9.106;2022-10-24T04:56:52;15.10;99.90
19586;DHT22;9939;49.246;9.106;2022-10-24T04:59:19;15.00;99.90
19586;DHT22;9939;49.246;9.106;2022-10-24T05:01:46;15.00;99.90
19586;DHT22;9939;49.246;9.106;2022-10-24T05:04:14;14.90;99.90
19586;DHT22;9939;49.246;9.106;2022-10-24T05:06:41;14.90;99.90
19586;DHT22;9939;49.246;9.106;2022-10-24T05:09:10;15.00;99.90
19586;DHT22;9939;49.246;9.106;2022-10-24T05:11:37;15.00;99.90
19586;DHT22;9939;49.246;9.106;2022-10-24T05:14:04;14.80;99.90
19586;DHT22;9939;49.246;9.106;2022-10-24T05:16:31;14.80;99.90
19586;DHT22;9939;49.246;9.106;2022-10-24T05:18:58;14.70;99.90
19586;DHT22;9939;49.246;9.106;2022-10-24T05:21:25;14.80;99.90
19586;DHT22;9939;49.246;9.106;2022-10-24T05:23:52;15.10;99.90
19586;DHT22;9939;49.246;9.106;2022-10-24T05:26:19;15.40;99.90
19586;DHT22;9939;49.246;9.106;2022-10-24T05:28:46;15.60;99.90
19586;DHT22;9939;49.246;9.106;2022-10-24T05:31:18;15.70;99.90
19586;DHT22;9939;49.246;9.106;2022-10-24T05:33:45;15.30;99.90
19586;DHT22;9939;49.246;9.106;2022-10-24T05:36:12;15.20;99.90
19586;DHT22;9939;49.246;9.106;2022-10-24T05:38:39;15.20;99.90
19586;DHT22;9939;49.246;9.106;2022-10-24T05:41:06;14.90;99.90
19586;DHT22;9939;49.246;9.106;2022-10-24T05:43:33;14.90;99.90
19586;DHT22;9939;49.246;9.106;2022-10-24T05:46:00;14.90;99.90
19586;DHT22;9939;49.246;9.106;2022-10-24T05:48:26;15.00;99.90
19586;DHT22;9939;49.246;9.106;2022-10-24T05:50:56;14.90;99.90
19586;DHT22;9939;49.246;9.106;2022-10-24T05:53:24;14.80;99.90
19586;DHT22;9939;49.246;9.106;2022-10-24T05:55:51;14.70;99.90
19586;DHT22;9939;49.246;9.106;2022-10-24T05:58:18;14.60;99.90
19586;DHT22;9939;49.246;9.106;2022-10-24T06:00:47;14.60;99.90
19586;DHT22;9939;49.246;9.106;2022-10-24T06:03:20;14.50;99.90
19586;DHT22;9939;49.246;9.106;2022-10-24T06:05:47;14.50;99.90
19586;DHT22;9939;49.246;9.106;2022-10-24T06:08:14;14.40;99.90
19586;DHT22;9939;49.246;9.106;2022-10-24T06:10:41;14.30;99.90
19586;DHT22;9939;49.246;9.106;2022-10-24T06:13:07;14.30;99.90
19586;DHT22;9939;49.246;9.106;2022-10-24T06:15:34;14.20;99.90
19586;DHT22;9939;49.246;9.106;2022-10-24T06:18:01;14.10;99.90
19586;DHT22;9939;49.246;9.106;2022-10-24T06:20:28;14.10;99.90
19586;DHT22;9939;49.246;9.106;2022-10-24T06:22:55;14.10;99.90
19586;DHT22;9939;49.246;9.106;2022-10-24T06:25:22;14.00;99.90
19586;DHT22;9939;49.246;9.106;2022-10-24T06:27:49;14.10;99.90
19586;DHT22;9939;49.246;9.106;2022-10-24T06:30:16;14.00;99.90
19586;DHT22;9939;49.246;9.106;2022-10-24T06:32:43;14.00;99.90
19586;DHT22;9939;49.246;9.106;2022-10-24T06:35:10;14.10;99.90
19586;DHT22;9939;49.246;9.106;2022-10-24T06:37:39;14.10;99.90
19586;DHT22;9939;49.246;9.106;2022-10-24T06:40:11;14.10;99.90
19586;DHT22;9939;49.246;9.106;2022-10-24T06:42:38;14.00;99.90
19586;DHT22;9939;49.246;9.106;2022-10-24T06:45:05;14.20;99.90
19586;DHT22;9939;49.246;9.106;2022-10-24T06:47:32;14.20;99.90
19586;DHT22;9939;49.246;9.106;2022-10-24T06:49:59;14.10;99.90
19586;DHT22;9939;49.246;9.106;2022-10-24T06:52:25;14.10;99.90
19586;DHT22;9939;49.246;9.106;2022-10-24T06:54:52;14.10;99.90
19586;DHT22;9939;49.246;9.106;2022-10-24T06:57:19;14.20;99.90
19586;DHT22;9939;49.246;9.106;2022-10-24T06:59:46;14.20;99.90
19586;DHT22;9939;49.246;9.106;2022-10-24T07:02:14;14.10;99.90
19586;DHT22;9939;49.246;9.106;2022-10-24T07:04:41;14.20;99.90
19586;DHT22;9939;49.246;9.106;2022-10-24T07:07:15;14.20;99.90
19586;DHT22;9939;49.246;9.106;2022-10-24T07:09:42;14.20;99.90
19586;DHT22;9939;49.246;9.106;2022-10-24T07:12:09;14.20;99.90
19586;DHT22;9939;49.246;9.106;2022-10-24T07:14:36;14.20;99.90
19586;DHT22;9939;49.246;9.106;2022-10-24T07:17:03;14.20;99.90
19586;DHT22;9939;49.246;9.106;2022-10-24T07:19:30;14.20;99.90
19586;DHT22;9939;49.246;9.106;2022-10-24T07:22:02;14.10;99.90
19586;DHT22;9939;49.246;9.106;2022-10-24T07:24:30;14.20;99.90
19586;DHT22;9939;49.246;9.106;2022-10-24T07:26:57;14.30;99.90
19586;DHT22;9939;49.246;9.106;2022-10-24T07:29:23;14.50;99.90
19586;DHT22;9939;49.246;9.106;2022-10-24T07:31:50;14.40;99.90
19586;DHT22;9939;49.246;9.106;2022-10-24T07:34:17;14.40;99.90
19586;DHT22;9939;49.246;9.106;2022-10-24T07:36:44;14.50;99.90
19586;DHT22;9939;49.246;9.106;2022-10-24T07:39:11;14.50;99.90
19586;DHT22;9939;49.246;9.106;2022-10-24T07:41:39;14.60;99.90
19586;DHT22;9939;49.246;9.106;2022-10-24T07:44:09;14.50;99.90
19586;DHT22;9939;49.246;9.106;2022-10-24T07:46:36;14.40;99.90
19586;DHT22;9939;49.246;9.106;2022-10-24T07:49:04;14.50;99.90
19586;DHT22;9939;49.246;9.106;2022-10-24T07:51:30;14.60;99.90
19586;DHT22;9939;49.246;9.106;2022-10-24T07:53:57;14.50;99.90
19586;DHT22;9939;49.246;9.106;2022-10-24T07:56:25;14.50;99.90
19586;DHT22;9939;49.246;9.106;2022-10-24T07:58:52;14.60;99.90
19586;DHT22;9939;49.246;9.106;2022-10-24T08:01:20;14.70;99.90
19586;DHT22;9939;49.246;9.106;2022-10-24T08:03:47;14.60;99.90
19586;DHT22;9939;49.246;9.106;2022-10-24T08:06:19;14.70;99.90
19586;DHT22;9939;49.246;9.106;2022-10-24T08:08:46;14.60;99.90
19586;DHT22;9939;49.246;9.106;2022-10-24T08:11:17;14.70;99.90
19586;DHT22;9939;49.246;9.106;2022-10-24T08:13:44;14.80;99.90
19586;DHT22;9939;49.246;9.106;2022-10-24T08:16:12;14.70;99.90
19586;DHT22;9939;49.246;9.106;2022-10-24T08:18:39;14.90;99.90
19586;DHT22;9939;49.246;9.106;2022-10-24T08:21:07;15.00;99.90
19586;DHT22;9939;49.246;9.106;2022-10-24T08:23:34;15.20;99.90
19586;DHT22;9939;49.246;9.106;2022-10-24T08:26:08;15.10;99.90
19586;DHT22;9939;49.246;9.106;2022-10-24T08:28:35;15.10;99.90
19586;DHT22;9939;49.246;9.106;2022-10-24T08:31:04;15.10;99.90
19586;DHT22;9939;49.246;9.106;2022-10-24T08:33:31;15.20;99.90
19586;DHT22;9939;49.246;9.106;2022-10-24T08:35:59;15.20;99.90
19586;DHT22;9939;49.246;9.106;2022-10-24T08:38:27;15.30;99.90
19586;DHT22;9939;49.246;9.106;2022-10-24T08:40:54;15.40;99.90
19586;DHT22;9939;49.246;9.106;2022-10-24T08:43:21;15.50;99.90
19586;DHT22;9939;49.246;9.106;2022-10-24T08:48:17;15.60;99.90
19586;DHT22;9939;49.246;9.106;2022-10-24T08:50:46;15.70;99.90
19586;DHT22;9939;49.246;9.106;2022-10-24T08:53:16;15.80;99.90
19586;DHT22;9939;49.246;9.106;2022-10-24T08:55:46;15.90;99.90
19586;DHT22;9939;49.246;9.106;2022-10-24T08:58:17;15.90;99.90
19586;DHT22;9939;49.246;9.106;2022-10-24T09:00:45;15.90;99.90
19586;DHT22;9939;49.246;9.106;2022-10-24T09:06:03;16.00;99.90
19586;DHT22;9939;49.246;9.106;2022-10-24T09:08:51;16.00;99.90
19586;DHT22;9939;49.246;9.106;2022-10-24T09:11:25;16.00;99.90
19586;DHT22;9939;49.246;9.106;2022-10-24T09:13:54;16.00;99.90
19586;DHT22;9939;49.246;9.106;2022-10-24T09:16:21;16.00;99.90
19586;DHT22;9939;49.246;9.106;2022-10-24T09:18:50;15.90;99.90
19586;DHT22;9939;49.246;9.106;2022-10-24T09:21:18;15.90;99.90
19586;DHT22;9939;49.246;9.106;2022-10-24T09:23:45;15.90;99.90
19586;DHT22;9939;49.246;9.106;2022-10-24T09:26:13;15.90;99.90
19586;DHT22;9939;49.246;9.106;2022-10-24T09:28:41;16.00;99.90
19586;DHT22;9939;49.246;9.106;2022-10-24T09:31:13;16.10;99.90
19586;DHT22;9939;49.246;9.106;2022-10-24T09:33:41;16.20;99.90
19586;DHT22;9939;49.246;9.106;2022-10-24T09:36:13;16.30;99.90
19586;DHT22;9939;49.246;9.106;2022-10-24T09:38:41;16.40;99.90
19586;DHT22;9939;49.246;9.106;2022-10-24T09:43:45;16.60;99.90
19586;DHT22;9939;49.246;9.106;2022-10-24T09:46:26;16.80;99.90
19586;DHT22;9939;49.246;9.106;2022-10-24T09:48:54;16.90;99.90
19586;DHT22;9939;49.246;9.106;2022-10-24T09:54:01;17.00;99.90
19586;DHT22;9939;49.246;9.106;2022-10-24T09:56:33;17.20;99.90
19586;DHT22;9939;49.246;9.106;2022-10-24T10:01:46;17.50;99.90
19586;DHT22;9939;49.246;9.106;2022-10-24T10:04:15;17.60;99.90
19586;DHT22;9939;49.246;9.106;2022-10-24T10:06:43;17.60;99.90
19586;DHT22;9939;49.246;9.106;2022-10-24T10:09:12;17.50;99.90
19586;DHT22;9939;49.246;9.106;2022-10-24T10:11:39;17.60;99.90
19586;DHT22;9939;49.246;9.106;2022-10-24T10:14:18;17.50;99.90
19586;DHT22;9939;49.246;9.106;2022-10-24T10:16:48;17.60;99.90
19586;DHT22;9939;49.246;9.106;2022-10-24T10:19:23;17.50;99.90
19586;DHT22;9939;49.246;9.106;2022-10-24T10:21:52;17.60;99.90
19586;DHT22;9939;49.246;9.106;2022-10-24T10:24:54;17.70;99.90
19586;DHT22;9939;49.246;9.106;2022-10-24T10:27:23;17.60;99.90
19586;DHT22;9939;49.246;9.106;2022-10-24T10:40:39;17.50;99.90
19586;DHT22;9939;49.246;9.106;2022-10-24T10:45:44;17.60;99.90
19586;DHT22;9939;49.246;9.106;2022-10-24T10:58:41;17.60;99.90
19586;DHT22;9939;49.246;9.106;2022-10-24T11:03:53;17.80;99.90
19586;DHT22;9939;49.246;9.106;2022-10-24T11:06:27;17.80;99.90
19586;DHT22;9939;49.246;9.106;2022-10-24T11:11:33;17.90;99.90
19586;DHT22;9939;49.246;9.106;2022-10-24T11:16:41;17.80;99.90
19586;DHT22;9939;49.246;9.106;2022-10-24T11:19:10;17.70;99.90
19586;DHT22;9939;49.246;9.106;2022-10-24T11:21:38;17.70;99.90
19586;DHT22;9939;49.246;9.106;2022-10-24T11:24:11;17.60;99.90
19586;DHT22;9939;49.246;9.106;2022-10-24T11:26:44;17.40;99.90
19586;DHT22;9939;49.246;9.106;2022-10-24T11:31:47;17.20;99.90
19586;DHT22;9939;49.246;9.106;2022-10-24T11:34:17;16.60;99.90
19586;DHT22;9939;49.246;9.106;2022-10-24T11:37:48;16.30;99.90
19586;DHT22;9939;49.246;9.106;2022-10-24T11:42:20;15.70;99.90
19586;DHT22;9939;49.246;9.106;2022-10-24T11:50:00;15.80;99.90
19586;DHT22;9939;49.246;9.106;2022-10-24T11:52:34;16.10;99.90
19586;DHT22;9939;49.246;9.106;2022-10-24T11:55:13;16.20;99.90
19586;DHT22;9939;49.246;9.106;2022-10-24T11:57:42;16.30;99.90
19586;DHT22;9939;49.246;9.106;2022-10-24T12:00:30;16.20;99.90
19586;DHT22;9939;49.246;9.106;2022-10-24T12:08:05;16.20;99.90
19586;DHT22;9939;49.246;9.106;2022-10-24T12:20:49;16.60;99.90
19586;DHT22;9939;49.246;9.106;2022-10-24T12:23:21;16.70;99.90
19586;DHT22;9939;49.246;9.106;2022-10-24T12:28:31;16.80;99.90
19586;DHT22;9939;49.246;9.106;2022-10-24T12:31:08;16.70;99.90
19586;DHT22;9939;49.246;9.106;2022-10-24T12:33:36;16.90;99.90
19586;DHT22;9939;49.246;9.106;2022-10-24T12:36:03;16.80;99.90
19586;DHT22;9939;49.246;9.106;2022-10-24T12:59:16;18.70;99.90
19586;DHT22;9939;49.246;9.106;2022-10-24T13:01:44;19.20;99.90
19586;DHT22;9939;49.246;9.106;2022-10-24T13:07:01;20.60;99.90
19586;DHT22;9939;49.246;9.106;2022-10-24T13:12:29;21.30;99.90
19586;DHT22;9939;49.246;9.106;2022-10-24T13:15:48;22.10;99.90
19586;DHT22;9939;49.246;9.106;2022-10-24T13:20:33;21.80;99.90
19586;DHT22;9939;49.246;9.106;2022-10-24T13:23:02;22.60;99.90
19586;DHT22;9939;49.246;9.106;2022-10-24T13:25:34;23.10;99.90
19586;DHT22;9939;49.246;9.106;2022-10-24T13:30:46;22.40;99.90
19586;DHT22;9939;49.246;9.106;2022-10-24T13:35:55;22.60;99.90
19586;DHT22;9939;49.246;9.106;2022-10-24T13:38:22;22.60;99.90
19586;DHT22;9939;49.246;9.106;2022-10-24T13:40:50;23.20;99.90
19586;DHT22;9939;49.246;9.106;2022-10-24T13:43:17;23.40;99.90
19586;DHT22;9939;49.246;9.106;2022-10-24T13:48:21;23.50;99.90
19586;DHT22;9939;49.246;9.106;2022-10-24T13:51:02;23.30;99.90
19586;DHT22;9939;49.246;9.106;2022-10-24T13:53:39;22.50;99.90
19586;DHT22;9939;49.246;9.106;2022-10-24T13:56:09;22.50;99.90
19586;DHT22;9939;49.246;9.106;2022-10-24T13:58:37;22.30;99.90
19586;DHT22;9939;49.246;9.106;2022-10-24T14:01:25;22.10;99.90
19586;DHT22;9939;49.246;9.106;2022-10-24T14:03:53;21.80;99.90
19586;DHT22;9939;49.246;9.106;2022-10-24T14:06:24;21.50;99.90
19586;DHT22;9939;49.246;9.106;2022-10-24T14:08:53;21.60;99.90
19586;DHT22;9939;49.246;9.106;2022-10-24T14:11:32;21.40;99.90
19586;DHT22;9939;49.246;9.106;2022-10-24T14:14:01;20.90;99.90
19586;DHT22;9939;49.246;9.106;2022-10-24T14:16:34;21.30;99.90
19586;DHT22;9939;49.246;9.106;2022-10-24T14:21:55;20.80;99.90
19586;DHT22;9939;49.246;9.106;2022-10-24T14:24:22;20.30;99.90
19586;DHT22;9939;49.246;9.106;2022-10-24T14:26:49;20.00;99.90
19586;DHT22;9939;49.246;9.106;2022-10-24T14:29:22;19.80;99.90
19586;DHT22;9939;49.246;9.106;2022-10-24T14:31:54;19.60;99.90
19586;DHT22;9939;49.246;9.106;2022-10-24T14:34:22;19.50;99.90
19586;DHT22;9939;49.246;9.106;2022-10-24T14:36:49;19.30;99.90
19586;DHT22;9939;49.246;9.106;2022-10-24T14:39:17;19.20;99.90
19586;DHT22;9939;49.246;9.106;2022-10-24T14:41:49;19.10;99.90
19586;DHT22;9939;49.246;9.106;2022-10-24T14:44:17;19.10;99.90
19586;DHT22;9939;49.246;9.106;2022-10-24T14:46:45;19.00;99.90
19586;DHT22;9939;49.246;9.106;2022-10-24T14:49:20;18.90;99.90
19586;DHT22;9939;49.246;9.106;2022-10-24T14:51:51;19.00;99.90
19586;DHT22;9939;49.246;9.106;2022-10-24T14:54:25;19.00;99.90
19586;DHT22;9939;49.246;9.106;2022-10-24T14:56:52;19.20;99.90
19586;DHT22;9939;49.246;9.106;2022-10-24T14:59:33;19.30;99.90
19586;DHT22;9939;49.246;9.106;2022-10-24T15:02:02;19.80;99.90
19586;DHT22;9939;49.246;9.106;2022-10-24T15:04:35;20.40;99.90
19586;DHT22;9939;49.246;9.106;2022-10-24T15:07:13;20.60;99.90
19586;DHT22;9939;49.246;9.106;2022-10-24T15:09:50;20.50;99.90
19586;DHT22;9939;49.246;9.106;2022-10-24T15:12:22;20.10;99.90
19586;DHT22;9939;49.246;9.106;2022-10-24T15:14:49;19.60;99.90
19586;DHT22;9939;49.246;9.106;2022-10-24T15:17:26;19.50;99.90
19586;DHT22;9939;49.246;9.106;2022-10-24T15:19:59;19.60;99.90
19586;DHT22;9939;49.246;9.106;2022-10-24T15:24:53;19.10;99.90
19586;DHT22;9939;49.246;9.106;2022-10-24T15:27:24;18.90;99.90
19586;DHT22;9939;49.246;9.106;2022-10-24T15:29:51;18.60;99.90
19586;DHT22;9939;49.246;9.106;2022-10-24T15:32:18;18.40;99.90
19586;DHT22;9939;49.246;9.106;2022-10-24T15:34:45;18.10;99.90
19586;DHT22;9939;49.246;9.106;2022-10-24T15:37:19;18.00;99.90
19586;DHT22;9939;49.246;9.106;2022-10-24T15:39:47;17.80;99.90
19586;DHT22;9939;49.246;9.106;2022-10-24T15:42:14;17.70;99.90
19586;DHT22;9939;49.246;9.106;2022-10-24T15:44:45;17.60;99.90
19586;DHT22;9939;49.246;9.106;2022-10-24T15:47:12;17.40;99.90
19586;DHT22;9939;49.246;9.106;2022-10-24T15:49:39;17.20;99.90
19586;DHT22;9939;49.246;9.106;2022-10-24T15:52:06;17.20;99.90
19586;DHT22;9939;49.246;9.106;2022-10-24T15:54:33;17.10;99.90
19586;DHT22;9939;49.246;9.106;2022-10-24T15:57:00;16.90;99.90
19586;DHT22;9939;49.246;9.106;2022-10-24T15:59:31;16.80;99.90
19586;DHT22;9939;49.246;9.106;2022-10-24T16:01:58;16.90;99.90
19586;DHT22;9939;49.246;9.106;2022-10-24T16:04:28;16.80;99.90
19586;DHT22;9939;49.246;9.106;2022-10-24T16:06:57;16.70;99.90
19586;DHT22;9939;49.246;9.106;2022-10-24T16:09:25;16.80;99.90
19586;DHT22;9939;49.246;9.106;2022-10-24T16:11:57;16.80;99.90
19586;DHT22;9939;49.246;9.106;2022-10-24T16:14:24;16.70;99.90
19586;DHT22;9939;49.246;9.106;2022-10-24T16:16:56;16.80;99.90
19586;DHT22;9939;49.246;9.106;2022-10-24T16:19:23;16.60;99.90
19586;DHT22;9939;49.246;9.106;2022-10-24T16:21:52;16.50;99.90
19586;DHT22;9939;49.246;9.106;2022-10-24T16:24:24;16.30;99.90
19586;DHT22;9939;49.246;9.106;2022-10-24T16:26:51;16.30;99.90
19586;DHT22;9939;49.246;9.106;2022-10-24T16:29:18;16.20;99.90
19586;DHT22;9939;49.246;9.106;2022-10-24T16:31:45;16.00;99.90
19586;DHT22;9939;49.246;9.106;2022-10-24T16:34:13;15.90;99.90
19586;DHT22;9939;49.246;9.106;2022-10-24T16:36:40;15.70;99.90
19586;DHT22;9939;49.246;9.106;2022-10-24T16:39:07;15.70;99.90
19586;DHT22;9939;49.246;9.106;2022-10-24T16:41:34;15.60;99.90
19586;DHT22;9939;49.246;9.106;2022-10-24T16:44:01;15.70;99.90
19586;DHT22;9939;49.246;9.106;2022-10-24T16:46:29;15.70;99.90
19586;DHT22;9939;49.246;9.106;2022-10-24T16:48:56;15.60;99.90
19586;DHT22;9939;49.246;9.106;2022-10-24T16:51:24;15.50;99.90
19586;DHT22;9939;49.246;9.106;2022-10-24T16:53:52;15.30;99.90
19586;DHT22;9939;49.246;9.106;2022-10-24T16:56:19;15.20;99.90
19586;DHT22;9939;49.246;9.106;2022-10-24T16:58:46;15.20;99.90
19586;DHT22;9939;49.246;9.106;2022-10-24T17:01:14;15.10;99.90
19586;DHT22;9939;49.246;9.106;2022-10-24T17:03:42;15.10;99.90
19586;DHT22;9939;49.246;9.106;2022-10-24T17:06:10;15.10;99.90
19586;DHT22;9939;49.246;9.106;2022-10-24T17:08:37;15.20;99.90
19586;DHT22;9939;49.246;9.106;2022-10-24T17:11:04;15.20;99.90
19586;DHT22;9939;49.246;9.106;2022-10-24T17:13:51;15.10;99.90
19586;DHT22;9939;49.246;9.106;2022-10-24T17:16:18;15.20;99.90
19586;DHT22;9939;49.246;9.106;2022-10-24T17:18:46;15.20;99.90
19586;DHT22;9939;49.246;9.106;2022-10-24T17:21:31;15.20;99.90
19586;DHT22;9939;49.246;9.106;2022-10-24T17:23:58;15.40;99.90
19586;DHT22;9939;49.246;9.106;2022-10-24T17:26:25;15.40;99.90
19586;DHT22;9939;49.246;9.106;2022-10-24T17:28:53;15.40;99.90
19586;DHT22;9939;49.246;9.106;2022-10-24T17:31:20;15.40;99.90
19586;DHT22;9939;49.246;9.106;2022-10-24T17:33:47;15.50;99.90
19586;DHT22;9939;49.246;9.106;2022-10-24T17:36:19;15.50;99.90
19586;DHT22;9939;49.246;9.106;2022-10-24T17:38:49;15.60;99.90
19586;DHT22;9939;49.246;9.106;2022-10-24T17:41:22;15.60;99.90
19586;DHT22;9939;49.246;9.106;2022-10-24T17:43:50;15.50;99.90
19586;DHT22;9939;49.246;9.106;2022-10-24T17:46:17;15.60;99.90
19586;DHT22;9939;49.246;9.106;2022-10-24T17:48:44;15.50;99.90
19586;DHT22;9939;49.246;9.106;2022-10-24T17:51:12;15.60;99.90
19586;DHT22;9939;49.246;9.106;2022-10-24T17:53:43;15.40;99.90
19586;DHT22;9939;49.246;9.106;2022-10-24T17:56:10;15.50;99.90
19586;DHT22;9939;49.246;9.106;2022-10-24T17:58:42;15.50;99.90
19586;DHT22;9939;49.246;9.106;2022-10-24T18:01:10;15.40;99.90
19586;DHT22;9939;49.246;9.106;2022-10-24T18:03:37;15.40;99.90
19586;DHT22;9939;49.246;9.106;2022-10-24T18:06:05;15.50;99.90
19586;DHT22;9939;49.246;9.106;2022-10-24T18:08:32;15.60;99.90
19586;DHT22;9939;49.246;9.106;2022-10-24T18:11:03;15.70;99.90
19586;DHT22;9939;49.246;9.106;2022-10-24T18:13:31;15.80;99.90
19586;DHT22;9939;49.246;9.106;2022-10-24T18:15:58;15.80;99.90
19586;DHT22;9939;49.246;9.106;2022-10-24T18:18:31;15.90;99.90
19586;DHT22;9939;49.246;9.106;2022-10-24T18:21:04;15.90;99.90
19586;DHT22;9939;49.246;9.106;2022-10-24T18:23:32;15.90;99.90